ESOE/ORB METAR and TAF weather

Enter ICAO airport designator
Station Type Date Time Source
ESOE METAR 2021/07/26 17:20 UTC NOAA

ESOE 261720Z 10006KT CAVOK 26/12 Q1015


Station Type Date Time Source
ESOE Decoded METAR 2021/07/26 17:20 UTC NOAA

Orebro Private , Sweden (ESOE) 59-14N 015-03E
Jul 26, 2021 - 01:20 PM EDT / 2021.07.26 1720 UTC
Wind: from the E (100 degrees) at 7 MPH (6 KT):0
Visibility: greater than 7 mile(s):0
Temperature: 78 F (26 C)
Dew Point: 53 F (12 C)
Relative Humidity: 41%
Pressure (altimeter): 29.97 in. Hg (1015 hPa)
ob: ESOE 261720Z 10006KT CAVOK 26/12 Q1015
cycle: 17

Station Type Date Time Source
ESOE TAF 2016/03/16 04:36 UTC NOAA

TAF TAF ESOE 160330Z 1604/1624 23005KT 9000 BR NSC PROB40 1604/1607 1200 BR

Example: see airport list